Погода Шапада дос Гуимарена 2 недели

Мату-Гросу, Бразилия

25 июля-06 августа
  • 25июля
    Сегодня
    +20°
    +33°
    Ясно и безоблачно
    ВремяПогодаТемператураВлажностьДавлениеВетер, м/сВероятность осадков
    02:00Ясно и безоблачно+20°C41 %698 мм2.9 м/с5 %
    05:00Ясно и безоблачно+21°C44 %699 мм2.8 м/с5 %
    08:00Ясно и безоблачно+24°C40 %701 мм2.2 м/с5 %
    11:00Ясно и безоблачно+30°C25 %702 мм1.3 м/с5 %
    14:00Ясно и безоблачно+33°C22 %700 мм2.6 м/с5 %
    17:00Ясно и безоблачно+31°C26 %699 мм1.7 м/с5 %
    20:00Ясно и безоблачно+24°C37 %698 мм1.0 м/с5 %
    23:00Ясно и безоблачно+24°C37 %698 мм0.9 м/с5 %
  • 26июля
    Пятница
    +21°
    +34°
    Ясно и безоблачно
    ВремяПогодаТемператураВлажностьДавлениеВетер, м/сВероятность осадков
    02:00Ясно и безоблачно+24°C39 %697 мм1.4 м/с5 %
    05:00Небольшая облачность+21°C43 %697 мм2.3 м/с5 %
    08:00Ясно и безоблачно+25°C35 %699 мм2.8 м/с5 %
    11:00Ясно и безоблачно+31°C23 %700 мм3.9 м/с5 %
    14:00Ясно и безоблачно+34°C20 %698 мм1.3 м/с5 %
    17:00Ясно и безоблачно+32°C32 %698 мм0.9 м/с5 %
    20:00Ясно и безоблачно+26°C36 %698 мм0.4 м/с5 %
    23:00Ясно и безоблачно+25°C33 %698 мм1.3 м/с5 %
  • 27июля
    Суббота
    +21°
    +34°
    Ясно и безоблачно
    ВремяПогодаТемператураВлажностьДавлениеВетер, м/сВероятность осадков
    02:00Ясно и безоблачно+23°C33 %697 мм2.4 м/с5 %
    05:00Ясно и безоблачно+21°C36 %697 мм3.1 м/с5 %
    08:00Ясно и безоблачно+25°C32 %700 мм2.6 м/с5 %
    11:00Ясно и безоблачно+31°C19 %700 мм3.3 м/с5 %
    14:00Ясно и безоблачно+34°C17 %699 мм1.2 м/с5 %
    17:00Ясно и безоблачно+32°C30 %698 мм0.2 м/с5 %
    20:00Ясно и безоблачно+27°C24 %699 мм1.0 м/с5 %
    23:00Ясно и безоблачно+25°C29 %699 мм1.7 м/с5 %
  • 28июля
    Воскресенье
    +21°
    +34°
    Ясно и безоблачно
    ВремяПогодаТемператураВлажностьДавлениеВетер, м/сВероятность осадков
    02:00Ясно и безоблачно+22°C31 %698 мм2.4 м/с5 %
    05:00Ясно и безоблачно+21°C39 %698 мм3.1 м/с5 %
    08:00Ясно и безоблачно+26°C32 %700 мм3.3 м/с5 %
    11:00Ясно и безоблачно+32°C19 %701 мм4.3 м/с5 %
    14:00Ясно и безоблачно+34°C16 %699 мм2.6 м/с5 %
    17:00Ясно и безоблачно+32°C22 %699 мм1.3 м/с5 %
    20:00Ясно и безоблачно+26°C26 %699 мм1.3 м/с5 %
    23:00Ясно и безоблачно+25°C28 %699 мм1.6 м/с5 %
Мы используем cookies
Соглашаюсь